Weather History for KGGE - March, 2014

Change the Weather History Date:

Sunday, March 30, 2014

  Actual Average Record
Temperature  
Mean Temperature 55 °F -  
Max Temperature 62 °F 72 °F 84 °F (2012)
Min Temperature 48 °F 51 °F 32 °F (2015)
Degree Days  
Heating Degree Days 10    
Growing Degree Days 5 (Base 50)    
Moisture  
Dew Point 39 °F    
Average Humidity 55    
Maximum Humidity 88    
Minimum Humidity 34    
Precipitation  
Precipitation 0.00 in - - ()
Sea Level Pressure  
Sea Level Pressure 29.84 in    
Wind  
Wind Speed 13 mph (WNW)    
Max Wind Speed 23 mph    
Max Gust Speed 34 mph    
Visibility 10 miles    
Events      
Averages and records for this station are not official NWS values.
T = Trace of Precipitation, MM = Missing Value Source: NWS Daily Summary

Daily Weather History Graph

Daily Weather History Graph

Search for Another Location

Airport or City:

Trip Planner

Search our weather history database for the weather conditions in past years. The results will help you decide how hot, cold, wet, or windy it might be!

Date:

Astronomy

Mar. 30, 2014 Rise Set
Actual Time 7:07 AM EDT 7:36 PM EDT
Civil Twilight 6:42 AM EDT 8:01 PM EDT
Nautical Twilight 6:13 AM EDT 8:30 PM EDT
Astronomical Twilight 5:43 AM EDT 9:00 PM EDT
Moon 6:52 AM EDT (3/30) 7:45 PM EDT (3/30)
Length of Visible Light 13h 18m
Length of Day
12h 28m
Waning Crescent, 0% of the Moon is Illuminated
Mar 30
Waning Crescent
Mar 30
New
Apr 7
First Quarter
Apr 15
Full
Apr 22
Last Quarter

Hourly Weather History & Observations

Time (EDT) Temp. Dew Point Humidity Pressure Visibility Wind Dir Wind Speed Gust Speed Precip Events Conditions
12:15 AM 62.6 °F 59.0 °F 88% 29.71 in 10.0 mi SW 9.2 mph - N/A   Clear
12:35 AM 62.6 °F 59.0 °F 88% 29.72 in 10.0 mi SW 9.2 mph 17.3 mph N/A   Scattered Clouds
12:55 AM 62.6 °F 57.2 °F 82% 29.72 in 10.0 mi WSW 5.8 mph - N/A   Mostly Cloudy
1:15 AM 60.8 °F 57.2 °F 88% 29.71 in 10.0 mi SW 9.2 mph - N/A   Mostly Cloudy
1:35 AM 62.6 °F 55.4 °F 77% 29.70 in 10.0 mi West 9.2 mph - N/A   Overcast
1:55 AM 62.6 °F 55.4 °F 77% 29.71 in 10.0 mi West 19.6 mph - N/A   Overcast
2:15 AM 59.0 °F 50.0 °F 72% 29.72 in 10.0 mi West 17.3 mph 28.8 mph N/A   Scattered Clouds
2:35 AM 57.2 °F 48.2 °F 72% 29.72 in 10.0 mi West 16.1 mph 25.3 mph N/A   Clear
2:55 AM 55.4 °F 46.4 °F 72% 29.72 in 10.0 mi West 13.8 mph 23.0 mph N/A   Clear
3:15 AM 53.6 °F 44.6 °F 72% 29.73 in 10.0 mi West 15.0 mph 25.3 mph N/A   Clear
3:35 AM 53.6 °F 44.6 °F 72% 29.72 in 10.0 mi West 15.0 mph 20.7 mph N/A   Clear
3:55 AM 53.6 °F 42.8 °F 67% 29.73 in 10.0 mi West 15.0 mph 27.6 mph N/A   Clear
4:15 AM 51.8 °F 42.8 °F 71% 29.73 in 10.0 mi West 16.1 mph 23.0 mph N/A   Clear
4:35 AM 51.8 °F 42.8 °F 71% 29.73 in 10.0 mi West 15.0 mph 23.0 mph N/A   Clear
4:55 AM 51.8 °F 42.8 °F 71% 29.74 in 10.0 mi West 13.8 mph 23.0 mph N/A   Clear
5:15 AM 51.8 °F 41.0 °F 67% 29.75 in 10.0 mi West 12.7 mph 20.7 mph N/A   Clear
5:35 AM 50.0 °F 41.0 °F 71% 29.75 in 10.0 mi West 16.1 mph 21.9 mph N/A   Clear
5:55 AM 50.0 °F 41.0 °F 71% 29.76 in 10.0 mi West 11.5 mph 19.6 mph N/A   Clear
6:15 AM 50.0 °F 41.0 °F 71% 29.77 in 10.0 mi West 15.0 mph 24.2 mph N/A   Clear
6:35 AM 50.0 °F 39.2 °F 66% 29.78 in 10.0 mi West 12.7 mph 19.6 mph N/A   Clear
6:55 AM 48.2 °F 39.2 °F 71% 29.78 in 10.0 mi West 17.3 mph 23.0 mph N/A   Clear
7:15 AM 48.2 °F 39.2 °F 71% 29.80 in 10.0 mi West 11.5 mph 21.9 mph N/A   Clear
7:35 AM 48.2 °F 39.2 °F 71% 29.81 in 10.0 mi West 12.7 mph 18.4 mph N/A   Clear
7:55 AM 48.2 °F 39.2 °F 71% 29.82 in 10.0 mi West 15.0 mph 21.9 mph N/A   Clear
8:15 AM 50.0 °F 39.2 °F 66% 29.83 in 10.0 mi West 15.0 mph 21.9 mph N/A   Clear
8:35 AM 50.0 °F 39.2 °F 66% 29.83 in 10.0 mi West 13.8 mph 18.4 mph N/A   Clear
8:55 AM 50.0 °F 39.2 °F 66% 29.84 in 10.0 mi West 16.1 mph 24.2 mph N/A   Clear
9:15 AM 51.8 °F 37.4 °F 58% 29.85 in 10.0 mi West 19.6 mph 33.4 mph N/A   Clear
9:35 AM 51.8 °F 37.4 °F 58% 29.85 in 10.0 mi West 19.6 mph 29.9 mph N/A   Clear
9:55 AM 51.8 °F 35.6 °F 54% 29.86 in 10.0 mi NW 18.4 mph 31.1 mph N/A   Scattered Clouds
10:15 AM 53.6 °F 35.6 °F 51% 29.86 in 10.0 mi WNW 15.0 mph 25.3 mph N/A   Scattered Clouds
10:35 AM 53.6 °F 35.6 °F 51% 29.87 in 10.0 mi WNW 17.3 mph 31.1 mph N/A   Mostly Cloudy
10:55 AM 53.6 °F 35.6 °F 51% 29.87 in 10.0 mi WNW 18.4 mph 27.6 mph N/A   Mostly Cloudy
11:15 AM 53.6 °F 33.8 °F 47% 29.88 in 10.0 mi WNW 19.6 mph 32.2 mph N/A   Overcast
11:35 AM 55.4 °F 35.6 °F 47% 29.87 in 10.0 mi NW 18.4 mph 32.2 mph N/A   Overcast
11:55 AM 55.4 °F 35.6 °F 47% 29.87 in 10.0 mi NW 20.7 mph 28.8 mph N/A   Overcast
12:15 PM 55.4 °F 35.6 °F 47% 29.88 in 10.0 mi NW 15.0 mph 28.8 mph N/A   Overcast
12:35 PM 55.4 °F 35.6 °F 47% 29.87 in 10.0 mi NW 20.7 mph 29.9 mph N/A   Overcast
12:55 PM 55.4 °F 35.6 °F 47% 29.87 in 10.0 mi NW 15.0 mph 25.3 mph N/A   Overcast
1:15 PM 55.4 °F 35.6 °F 47% 29.87 in 10.0 mi WNW 17.3 mph 25.3 mph N/A   Overcast
1:35 PM 57.2 °F 37.4 °F 48% 29.87 in 10.0 mi NW 13.8 mph 25.3 mph N/A   Overcast
1:55 PM 59.0 °F 37.4 °F 45% 29.87 in 10.0 mi NW 12.7 mph 26.5 mph N/A   Overcast
2:15 PM 59.0 °F 37.4 °F 45% 29.86 in 10.0 mi NW 17.3 mph 29.9 mph N/A   Overcast
2:35 PM 59.0 °F 37.4 °F 45% 29.85 in 10.0 mi WNW 11.5 mph 25.3 mph N/A   Overcast
2:55 PM 59.0 °F 37.4 °F 45% 29.85 in 10.0 mi WNW 17.3 mph 27.6 mph N/A   Overcast
3:15 PM 60.8 °F 37.4 °F 42% 29.84 in 10.0 mi NW 15.0 mph 23.0 mph N/A   Overcast
3:35 PM 62.6 °F 37.4 °F 39% 29.84 in 10.0 mi NW 18.4 mph 25.3 mph N/A   Mostly Cloudy
3:55 PM 62.6 °F 37.4 °F 39% 29.83 in 10.0 mi WNW 21.9 mph 33.4 mph N/A   Mostly Cloudy
4:15 PM 62.6 °F 37.4 °F 39% 29.83 in 10.0 mi NW 23.0 mph 34.5 mph N/A   Scattered Clouds
4:35 PM - - N/A% - - North - - N/A   Unknown
4:55 PM 62.6 °F 37.4 °F 39% 29.84 in 10.0 mi WNW 19.6 mph 25.3 mph N/A   Scattered Clouds
5:15 PM 62.6 °F 37.4 °F 39% 29.85 in 10.0 mi NW 20.7 mph 33.4 mph N/A   Scattered Clouds
5:35 PM 62.6 °F 37.4 °F 39% 29.85 in 10.0 mi NW 17.3 mph 32.2 mph N/A   Scattered Clouds
5:55 PM 62.6 °F 37.4 °F 39% 29.85 in 10.0 mi NW 13.8 mph 26.5 mph N/A   Clear
6:15 PM 62.6 °F 35.6 °F 37% 29.87 in 10.0 mi NNW 21.9 mph 27.6 mph N/A   Clear
6:35 PM 60.8 °F 33.8 °F 36% 29.88 in 10.0 mi NW 20.7 mph 29.9 mph N/A   Clear
6:55 PM 60.8 °F 32.0 °F 34% 29.90 in 10.0 mi NW 18.4 mph 29.9 mph N/A   Clear
7:15 PM 59.0 °F 32.0 °F 36% 29.91 in 10.0 mi NW 17.3 mph 21.9 mph N/A   Clear
7:35 PM 59.0 °F 32.0 °F 36% 29.92 in 10.0 mi NW 11.5 mph 15.0 mph N/A   Clear
7:55 PM 55.4 °F 32.0 °F 41% 29.93 in 10.0 mi NW 6.9 mph 10.4 mph N/A   Clear
8:15 PM 55.4 °F 32.0 °F 41% 29.94 in 10.0 mi NW 11.5 mph 18.4 mph N/A   Clear
8:35 PM 55.4 °F 32.0 °F 41% 29.95 in 10.0 mi NW 9.2 mph - N/A   Clear
8:55 PM 53.6 °F 32.0 °F 44% 29.97 in 10.0 mi NW 4.6 mph - N/A   Clear
9:15 PM 53.6 °F 32.0 °F 44% 29.98 in 10.0 mi WNW 5.8 mph - N/A   Clear
9:35 PM 53.6 °F 30.2 °F 41% 29.99 in 10.0 mi WNW 8.1 mph - N/A   Clear
9:55 PM 53.6 °F 32.0 °F 44% 29.99 in 10.0 mi NW 5.8 mph - N/A   Clear
10:15 PM 53.6 °F 32.0 °F 44% 30.00 in 10.0 mi WNW 6.9 mph - N/A   Clear
10:35 PM 51.8 °F 32.0 °F 47% 30.01 in 10.0 mi NW 6.9 mph - N/A   Clear
10:55 PM 51.8 °F 32.0 °F 47% 30.01 in 10.0 mi NW 5.8 mph - N/A   Clear
11:15 PM 51.8 °F 32.0 °F 47% 30.03 in 10.0 mi WNW 5.8 mph - N/A   Clear
11:35 PM 50.0 °F 32.0 °F 50% 30.03 in 10.0 mi NW 5.8 mph - N/A   Clear
11:55 PM 50.0 °F 32.0 °F 50% 30.04 in 10.0 mi WNW 5.8 mph - N/A   Clear